• Join FlightAware (Why Join?)
  • Login
  • US Flag 
04:53AM EDT


 

Airport Tracker/Info


-or-


 

Live Flight TrackerFlight Track Log ✈ WEW1540 ✈ 02-May-2013 ✈ CYYN - CYQR

Flight Track Log - Related Links

Times and Time Zones

All times are in EDT time to prevent confusion due to time zone crossing. See the WEW1540 flight status page for this flight to view local times or setup timezone preferences in your user account.

Time Position Orientation Groundspeed Altitude Reporting Facility
EDT Latitude Longitude Course Direction KTS MPH feet Rate Location/Type
07:56PM 50.3000 -107.5000 72° East 150 173 8,000  Level Winnipeg Center
07:58PM 50.3293 -107.3828 69° East  Level FlightAware Approximate
08:00PM 50.3667 -107.1833 77° East 210 242 9,000  Level Winnipeg Center
08:01PM 50.3667 -107.0833 90° East 210 242 9,000  Level Winnipeg Center
08:02PM 50.3833 -107.0167 69° East 210 242 9,000  Level Winnipeg Center
08:03PM 50.4000 -106.9167 75° East 210 242 9,000  Level Winnipeg Center
08:04PM 50.4167 -106.8333 73° East 210 242 9,000  Level Winnipeg Center
08:05PM 50.3974 -106.8701 77° East  Level FlightAware Approximate
08:05PM 50.4167 -106.7333 90° East 200 230 9,000  Level Winnipeg Center
08:06PM 50.4333 -106.6500 73° East 210 242 9,000  Level Winnipeg Center
08:07PM 50.4333 -106.5667 90° East 210 242 9,000  Level Winnipeg Center
08:08PM 50.4500 -106.4667 75° East 200 230 9,000  Level Winnipeg Center
08:09PM 50.4667 -106.4000 69° East 210 242 9,000  Level Winnipeg Center
08:10PM 50.4667 -106.2833 90° East 210 242 9,000  Level Winnipeg Center
08:11PM 50.5000 -106.2167 52° Northeast 210 242 9,000  Level Winnipeg Center
08:12PM 50.5000 -106.1167 90° East 210 242 9,000  Level Winnipeg Center
08:13PM 50.5167 -106.0333 73° East 210 242 9,100 60 Climbing Winnipeg Center
08:14PM 50.5167 -105.9333 90° East 210 242 9,200  Climbing Winnipeg Center
08:15PM 50.5333 -105.8500 73° East 220 253 9,100  Descending Winnipeg Center
08:16PM 50.5500 -105.7500 75° East 220 253 9,200  Climbing Winnipeg Center
08:17PM 50.5500 -105.6500 90° East 220 253 9,100 -60 Descending Winnipeg Center
08:18PM 50.5667 -105.5667 72° East 220 253 9,100  Level Winnipeg Center
08:19PM 50.5833 -105.4667 75° East 210 242 9,100 -420 Level Winnipeg Center
08:20PM 50.5667 -105.3833 107° East 220 253 8,300 -720 Descending Winnipeg Center
08:21PM 50.5500 -105.3000 107° East 220 253 7,700 -660 Descending Winnipeg Center
08:22PM 50.5167 -105.1833 114° Southeast 220 253 7,000 -660 Descending Winnipeg Center
08:23PM 50.5167 -105.1000 90° East 220 253 6,400 -660 Descending Winnipeg Center
08:24PM 50.5000 -105.0000 105° East 210 242 5,700 -660 Descending Winnipeg Center
08:25PM 50.5000 -104.9167 90° East 200 230 5,100 -600 Descending Winnipeg Center
08:26PM 50.4833 -104.8333 107° East 200 230 4,500 -720 Descending Winnipeg Center
08:27PM 50.4500 -104.7500 122° Southeast 190 219 3,700 -1,020 Descending Winnipeg Center
08:28PM 50.4333 -104.7000 118° Southeast 180 207 2,500 -900 Descending Winnipeg Center
08:29PM 50.4000 -104.6667 147° Southeast 100 115 1,900 -600 Descending Winnipeg Center